createdAt,value
2022-09-02T00:01:38.159Z,9.83
2022-09-02T00:06:42.673Z,9.88
2022-09-02T00:11:50.163Z,9.85
2022-09-02T00:16:54.123Z,9.76
2022-09-02T00:21:59.892Z,9.76
2022-09-02T00:27:04.945Z,9.68
2022-09-02T00:32:08.522Z,9.55
2022-09-02T00:37:13.372Z,9.54
2022-09-02T00:42:18.465Z,9.32
2022-09-02T00:47:22.301Z,9.31
2022-09-02T00:52:30.123Z,9.22
2022-09-02T00:57:45.485Z,9.19
2022-09-02T01:02:54.710Z,9.14
2022-09-02T01:07:59.864Z,9.11
2022-09-02T01:13:07.610Z,9.05
2022-09-02T01:18:17.680Z,8.98
2022-09-02T01:23:23.070Z,9.03
2022-09-02T01:28:28.851Z,8.97
2022-09-02T01:33:33.273Z,9.21
2022-09-02T01:38:38.695Z,9.14
2022-09-02T01:43:42.228Z,9.10
2022-09-02T01:48:45.946Z,9.22
2022-09-02T01:53:50.988Z,9.14
2022-09-02T01:58:55.424Z,9.11
2022-09-02T02:03:59.290Z,9.08
2022-09-02T02:09:04.622Z,9.09
2022-09-02T02:14:09.598Z,9.06
2022-09-02T02:19:14.268Z,9.11
2022-09-02T02:24:19.224Z,9.10
2022-09-02T02:29:23.127Z,9.16
2022-09-02T02:34:26.776Z,9.19
2022-09-02T02:39:32.014Z,9.24
2022-09-02T02:44:36.504Z,9.14
2022-09-02T02:49:41.686Z,9.30
2022-09-02T02:54:47.292Z,9.10
2022-09-02T02:59:51.340Z,9.29
2022-09-02T03:04:56.386Z,9.25
2022-09-02T03:10:03.390Z,9.07
2022-09-02T03:15:11.329Z,9.10
2022-09-02T03:20:18.888Z,8.86
2022-09-02T03:25:35.370Z,9.20
2022-09-02T03:30:47.536Z,9.25
2022-09-02T03:35:53.707Z,9.28
2022-09-02T03:40:58.911Z,9.32
2022-09-02T03:46:02.549Z,9.28
2022-09-02T03:51:07.121Z,9.24
2022-09-02T03:56:15.564Z,9.25
2022-09-02T04:01:22.097Z,9.18
2022-09-02T04:06:32.401Z,9.18
2022-09-02T04:11:42.821Z,9.21
2022-09-02T04:16:48.321Z,9.28
2022-09-02T04:21:52.308Z,9.01
2022-09-02T04:27:03.907Z,9.11
2022-09-02T04:32:10.303Z,9.11
2022-09-02T04:37:14.776Z,9.18
2022-09-02T04:42:21.261Z,9.15
2022-09-02T04:47:26.613Z,9.40
2022-09-02T04:52:30.919Z,9.45
2022-09-02T04:57:36.533Z,9.60
2022-09-02T05:02:42.212Z,9.74
2022-09-02T05:07:46.257Z,9.84
2022-09-02T05:12:51.779Z,9.92
2022-09-02T05:17:55.716Z,9.99
2022-09-02T05:22:59.332Z,9.87
2022-09-02T05:28:05.246Z,9.86
2022-09-02T05:33:10.659Z,9.94
2022-09-02T05:38:17.699Z,9.79
2022-09-02T05:43:24.911Z,9.86
2022-09-02T05:48:46.219Z,10.05
2022-09-02T05:53:53.993Z,10.12
2022-09-02T05:59:00.856Z,10.13
2022-09-02T06:04:07.844Z,10.20
2022-09-02T06:09:17.603Z,10.87
2022-09-02T06:14:25.448Z,11.30
2022-09-02T06:19:30.501Z,11.27
2022-09-02T06:24:35.320Z,11.48
2022-09-02T06:29:46.581Z,11.62
2022-09-02T06:34:54.475Z,11.79
2022-09-02T06:39:59.415Z,12.01
2022-09-02T06:45:06.860Z,12.94
2022-09-02T06:50:11.597Z,14.09
2022-09-02T06:55:16.380Z,14.93
2022-09-02T07:00:21.905Z,16.00
2022-09-02T07:05:25.497Z,17.10
2022-09-02T07:10:30.575Z,16.98
2022-09-02T07:15:36.562Z,17.00
2022-09-02T07:20:40.265Z,17.87
2022-09-02T07:25:45.124Z,18.04
2022-09-02T07:30:57.733Z,18.31
2022-09-02T07:36:05.305Z,18.34
2022-09-02T07:41:15.076Z,18.30
2022-09-02T07:46:21.390Z,18.48
2022-09-02T07:51:30.803Z,18.71
2022-09-02T07:56:37.811Z,18.81
2022-09-02T08:06:54.103Z,18.19
2022-09-02T08:11:57.740Z,18.84
2022-09-02T08:17:03.834Z,18.96
2022-09-02T08:22:07.880Z,19.42
2022-09-02T08:27:12.002Z,19.76
2022-09-02T08:32:19.338Z,19.62
2022-09-02T08:37:22.971Z,20.30
2022-09-02T08:42:32.707Z,19.93
2022-09-02T08:47:40.259Z,20.60
2022-09-02T08:52:50.576Z,21.19
2022-09-02T08:57:56.297Z,21.50
2022-09-02T09:03:07.205Z,20.66
2022-09-02T09:08:21.604Z,20.91
2022-09-02T09:13:54.278Z,21.84
2022-09-02T09:19:09.094Z,21.31
2022-09-02T09:24:23.015Z,20.69
2022-09-02T09:29:26.979Z,20.42
2022-09-02T09:35:00.137Z,21.34
2022-09-02T09:40:30.635Z,22.10
2022-09-02T09:45:36.363Z,20.72
2022-09-02T09:50:41.641Z,21.14
2022-09-02T09:55:54.747Z,21.20
2022-09-02T10:01:00.857Z,20.83
2022-09-02T10:06:21.662Z,20.91
2022-09-02T10:11:30.297Z,20.58
2022-09-02T10:16:49.454Z,20.65
2022-09-02T10:22:15.765Z,21.18
2022-09-02T10:27:37.525Z,21.21
2022-09-02T10:33:09.730Z,21.33
2022-09-02T10:38:29.388Z,21.12
2022-09-02T10:44:01.214Z,21.19
2022-09-02T10:49:14.688Z,21.23
2022-09-02T10:54:37.294Z,21.51
2022-09-02T10:59:45.326Z,21.92
2022-09-02T11:04:54.836Z,21.39
2022-09-02T11:10:04.847Z,21.11
2022-09-02T11:15:17.076Z,21.95
2022-09-02T11:20:31.570Z,23.81
2022-09-02T11:25:44.122Z,24.86
2022-09-02T11:30:55.210Z,24.72
2022-09-02T11:36:01.038Z,23.11
2022-09-02T11:41:34.276Z,22.51
2022-09-02T11:46:59.813Z,21.30
2022-09-02T11:57:34.025Z,22.62
2022-09-02T12:02:43.342Z,22.24
2022-09-02T12:07:51.073Z,21.95
2022-09-02T12:13:18.856Z,22.99
2022-09-02T12:18:31.221Z,22.24
2022-09-02T12:24:04.574Z,21.53
2022-09-02T12:29:32.812Z,21.51
2022-09-02T12:34:56.787Z,21.93
2022-09-02T12:40:13.105Z,21.67
2022-09-02T12:45:29.133Z,21.30
2022-09-02T12:50:51.965Z,21.15
2022-09-02T12:55:58.577Z,21.44
2022-09-02T13:01:11.568Z,21.98
2022-09-02T13:06:24.091Z,21.74
2022-09-02T13:12:01.468Z,22.34
2022-09-02T13:17:37.335Z,21.79
2022-09-02T13:23:31.210Z,21.82
2022-09-02T13:29:17.777Z,22.61
2022-09-02T13:34:22.780Z,22.43
2022-09-02T13:39:28.175Z,23.11
2022-09-02T13:44:32.643Z,21.88
2022-09-02T13:49:41.748Z,21.60
2022-09-02T13:54:49.222Z,21.59
2022-09-02T13:59:55.547Z,22.26
2022-09-02T14:05:04.643Z,21.85
2022-09-02T14:10:12.879Z,22.06
2022-09-02T14:15:18.628Z,23.08
2022-09-02T14:20:25.411Z,22.50
2022-09-02T14:25:39.465Z,22.34
2022-09-02T14:30:43.388Z,21.98
2022-09-02T14:35:59.635Z,21.96
2022-09-02T14:41:06.295Z,22.16
2022-09-02T14:46:23.939Z,21.82
2022-09-02T14:51:36.310Z,22.24
2022-09-02T14:56:53.118Z,22.07
2022-09-02T15:01:58.348Z,21.96
2022-09-02T15:07:04.173Z,21.62
2022-09-02T15:12:08.944Z,21.82
2022-09-02T15:17:15.922Z,22.09
2022-09-02T15:22:21.931Z,21.50
2022-09-02T15:27:26.202Z,21.06
2022-09-02T15:32:29.948Z,21.02
2022-09-02T15:37:37.724Z,21.09
2022-09-02T15:42:41.538Z,20.84
2022-09-02T15:47:45.152Z,21.33
2022-09-02T15:52:51.486Z,20.66
2022-09-02T15:57:55.286Z,20.64
2022-09-02T16:02:59.775Z,20.79
2022-09-02T16:08:05.683Z,20.96
2022-09-02T16:13:10.182Z,20.53
2022-09-02T16:18:13.707Z,20.15
2022-09-02T16:23:19.009Z,20.49
2022-09-02T16:28:23.016Z,20.37
2022-09-02T16:33:26.692Z,20.51
2022-09-02T16:38:35.008Z,20.10
2022-09-02T16:43:38.824Z,19.82
2022-09-02T16:48:43.457Z,19.93
2022-09-02T16:53:54.005Z,19.67
2022-09-02T16:59:00.789Z,19.62
2022-09-02T17:04:05.823Z,19.17
2022-09-02T17:09:14.653Z,19.03
2022-09-02T17:14:21.552Z,18.95
2022-09-02T17:19:31.383Z,18.86
2022-09-02T17:24:40.410Z,19.09
2022-09-02T17:29:49.388Z,18.92
2022-09-02T17:34:54.200Z,18.48
2022-09-02T17:40:00.851Z,18.32
2022-09-02T17:45:05.724Z,18.08
2022-09-02T17:50:14.743Z,17.87
2022-09-02T17:55:23.130Z,17.70
2022-09-02T18:00:30.932Z,17.79
2022-09-02T18:05:46.219Z,17.36
2022-09-02T18:10:57.857Z,17.14
2022-09-02T18:16:23.059Z,16.81
2022-09-02T18:21:31.289Z,16.71
2022-09-02T18:26:50.453Z,16.42
2022-09-02T18:32:06.805Z,16.35
2022-09-02T18:37:21.568Z,16.27
2022-09-02T18:42:37.312Z,16.01
2022-09-02T18:47:49.223Z,15.95
2022-09-02T18:52:59.096Z,15.91
2022-09-02T18:58:15.917Z,15.88
2022-09-02T19:03:21.426Z,15.84
2022-09-02T19:08:34.210Z,15.72
2022-09-02T19:13:50.092Z,15.24
2022-09-02T19:18:55.915Z,15.40
2022-09-02T19:24:04.121Z,15.21
2022-09-02T19:29:12.359Z,14.90
2022-09-02T19:34:17.594Z,14.74
2022-09-02T19:39:23.544Z,14.86
2022-09-02T19:44:31.997Z,14.62
2022-09-02T19:49:41.956Z,14.67
2022-09-02T19:54:55.716Z,14.64
2022-09-02T20:00:05.719Z,14.74
2022-09-02T20:05:11.462Z,14.58
2022-09-02T20:10:16.069Z,14.68
2022-09-02T20:15:27.159Z,14.61
2022-09-02T20:20:32.297Z,14.46
2022-09-02T20:25:48.869Z,14.11
2022-09-02T20:31:03.289Z,14.01
2022-09-02T20:36:18.205Z,13.82
2022-09-02T20:41:34.728Z,13.96
2022-09-02T20:46:55.225Z,13.88
2022-09-02T20:52:06.285Z,13.81
2022-09-02T20:57:37.505Z,13.47
2022-09-02T21:02:50.741Z,13.29
2022-09-02T21:08:03.119Z,13.09
2022-09-02T21:13:14.745Z,12.82
2022-09-02T21:18:31.611Z,12.54
2022-09-02T21:23:40.112Z,12.30
2022-09-02T21:28:50.130Z,12.22
2022-09-02T21:34:00.651Z,12.20
2022-09-02T21:39:10.187Z,11.95
2022-09-02T21:44:20.704Z,11.73
2022-09-02T21:49:38.165Z,11.57
2022-09-02T21:54:55.740Z,11.39
2022-09-02T22:00:02.075Z,11.30
2022-09-02T22:05:16.617Z,11.32
2022-09-02T22:10:29.282Z,11.27
2022-09-02T22:15:47.842Z,11.15
2022-09-02T22:20:57.059Z,11.04
2022-09-02T22:26:12.339Z,10.85
2022-09-02T22:31:25.035Z,10.87
2022-09-02T22:36:39.692Z,10.70
2022-09-02T22:41:56.227Z,10.69
2022-09-02T22:47:22.169Z,10.54
2022-09-02T22:52:50.203Z,10.47
2022-09-02T22:58:02.589Z,10.39
2022-09-02T23:03:15.279Z,10.32
2022-09-02T23:08:21.931Z,10.24
2022-09-02T23:13:36.249Z,10.15
2022-09-02T23:18:52.944Z,10.04
2022-09-02T23:24:08.049Z,9.94
2022-09-02T23:29:18.095Z,9.92
2022-09-02T23:34:32.430Z,10.03
2022-09-02T23:39:54.320Z,9.80
2022-09-02T23:45:05.375Z,9.76
2022-09-02T23:50:22.314Z,9.66
2022-09-02T23:55:38.998Z,9.64
